createdAt,value
2023-02-23T00:01:01.205Z,20.50
2023-02-23T00:04:03.053Z,20.60
2023-02-23T00:07:05.630Z,20.40
2023-02-23T00:10:10.500Z,20.80
2023-02-23T00:13:11.821Z,20.60
2023-02-23T00:16:14.115Z,21.10
2023-02-23T00:19:15.436Z,20.40
2023-02-23T00:22:17.684Z,20.40
2023-02-23T00:25:19.082Z,20.70
2023-02-23T00:28:20.333Z,20.70
2023-02-23T00:31:24.839Z,21.00
2023-02-23T00:34:26.758Z,20.10
2023-02-23T00:37:28.531Z,20.70
2023-02-23T00:40:29.919Z,20.30
2023-02-23T00:43:33.554Z,20.80
2023-02-23T00:46:34.794Z,20.80
2023-02-23T00:49:36.040Z,20.50
2023-02-23T00:52:38.237Z,20.30
2023-02-23T00:55:40.358Z,20.80
2023-02-23T00:58:42.006Z,20.90
2023-02-23T01:01:43.531Z,20.70
2023-02-23T01:04:44.904Z,20.70
2023-02-23T01:07:46.810Z,20.70
2023-02-23T01:10:52.314Z,20.50
2023-02-23T01:13:54.502Z,20.50
2023-02-23T01:16:55.771Z,20.90
2023-02-23T01:19:57.001Z,20.60
2023-02-23T01:22:58.914Z,20.30
2023-02-23T01:26:00.183Z,20.60
2023-02-23T01:29:03.854Z,20.80
2023-02-23T01:32:05.331Z,20.50
2023-02-23T01:35:07.984Z,20.20
2023-02-23T01:38:11.052Z,20.70
2023-02-23T01:41:12.380Z,20.20
2023-02-23T01:44:28.507Z,20.60
2023-02-23T01:47:30.473Z,20.80
2023-02-23T01:50:35.320Z,20.40
2023-02-23T01:53:39.156Z,20.20
2023-02-23T01:56:43.668Z,20.60
2023-02-23T01:59:46.226Z,20.10
2023-02-23T02:02:48.018Z,20.70
2023-02-23T02:05:49.839Z,20.40
2023-02-23T02:08:54.181Z,20.60
2023-02-23T02:11:55.528Z,20.40
2023-02-23T02:14:58.739Z,20.60
2023-02-23T02:18:08.466Z,20.30
2023-02-23T02:21:22.949Z,20.40
2023-02-23T02:24:36.770Z,20.60
2023-02-23T02:27:47.632Z,20.20
2023-02-23T02:31:00.766Z,20.10
2023-02-23T02:34:17.460Z,20.20
2023-02-23T02:37:24.712Z,20.10
2023-02-23T02:40:31.688Z,20.20
2023-02-23T02:43:36.918Z,20.50
2023-02-23T02:46:40.058Z,20.40
2023-02-23T02:49:45.289Z,21.20
2023-02-23T02:52:49.091Z,20.20
2023-02-23T02:55:50.804Z,20.00
2023-02-23T02:58:52.795Z,20.10
2023-02-23T03:02:08.885Z,20.50
2023-02-23T03:05:27.390Z,20.30
2023-02-23T03:08:47.606Z,20.10
2023-02-23T03:12:09.748Z,20.30
2023-02-23T03:15:29.805Z,20.00
2023-02-23T03:18:55.412Z,20.30
2023-02-23T03:22:14.804Z,20.60
2023-02-23T03:25:29.825Z,20.20
2023-02-23T03:28:49.105Z,20.00
2023-02-23T03:32:09.218Z,20.20
2023-02-23T03:35:28.484Z,20.00
2023-02-23T03:38:48.336Z,20.10
2023-02-23T03:42:06.675Z,20.00
2023-02-23T03:45:24.976Z,20.20
2023-02-23T03:48:39.804Z,20.30
2023-02-23T03:51:57.943Z,20.50
2023-02-23T03:55:09.816Z,20.60
2023-02-23T03:58:29.495Z,20.10
2023-02-23T04:01:46.406Z,20.00
2023-02-23T04:04:59.884Z,20.30
2023-02-23T04:08:17.049Z,20.10
2023-02-23T04:11:35.632Z,20.20
2023-02-23T04:14:39.545Z,20.00
2023-02-23T04:17:41.172Z,20.20
2023-02-23T04:20:42.443Z,20.60
2023-02-23T04:23:43.837Z,20.10
2023-02-23T04:26:45.108Z,20.60
2023-02-23T04:29:46.957Z,20.00
2023-02-23T04:32:48.345Z,20.60
2023-02-23T04:35:51.380Z,20.50
2023-02-23T04:38:52.603Z,20.40
2023-02-23T04:41:53.863Z,20.20
2023-02-23T04:44:55.686Z,20.20
2023-02-23T04:47:56.972Z,20.00
2023-02-23T04:50:58.546Z,19.70
2023-02-23T04:54:00.194Z,20.00
2023-02-23T04:57:01.435Z,20.50
2023-02-23T05:00:03.898Z,20.00
2023-02-23T05:03:05.217Z,19.80
2023-02-23T05:06:06.513Z,20.10
2023-02-23T05:09:07.772Z,20.20
2023-02-23T05:12:09.026Z,20.10
2023-02-23T05:15:11.049Z,19.90
2023-02-23T05:18:12.433Z,19.90
2023-02-23T05:21:13.789Z,20.00
2023-02-23T05:24:16.477Z,20.10
2023-02-23T05:27:17.795Z,20.60
2023-02-23T05:30:19.722Z,20.00
2023-02-23T05:33:21.171Z,20.00
2023-02-23T05:36:22.402Z,20.00
2023-02-23T05:39:23.672Z,20.40
2023-02-23T05:42:25.181Z,20.00
2023-02-23T05:45:27.092Z,20.10
2023-02-23T05:48:28.487Z,20.00
2023-02-23T05:51:31.109Z,20.90
2023-02-23T05:54:32.409Z,20.00
2023-02-23T05:57:33.675Z,19.90
2023-02-23T06:00:35.466Z,20.20
2023-02-23T06:03:36.850Z,19.80
2023-02-23T06:06:38.168Z,20.10
2023-02-23T06:09:40.152Z,20.70
2023-02-23T06:12:41.366Z,20.10
2023-02-23T06:15:43.663Z,19.80
2023-02-23T06:18:45.006Z,19.90
2023-02-23T06:21:46.336Z,19.90
2023-02-23T06:24:48.831Z,19.90
2023-02-23T06:27:50.071Z,20.80
2023-02-23T06:30:51.998Z,20.10
2023-02-23T06:33:53.430Z,19.80
2023-02-23T06:36:54.793Z,19.90
2023-02-23T06:39:56.054Z,20.00
2023-02-23T06:42:57.411Z,20.10
2023-02-23T06:45:59.277Z,20.10
2023-02-23T06:49:00.825Z,20.30
2023-02-23T06:52:02.099Z,20.40
2023-02-23T06:55:03.635Z,20.00
2023-02-23T06:58:06.373Z,19.90
2023-02-23T07:01:09.155Z,19.80
2023-02-23T07:04:10.786Z,20.40
2023-02-23T07:07:12.263Z,19.80
2023-02-23T07:10:13.493Z,20.40
2023-02-23T07:13:14.801Z,20.00
2023-02-23T07:16:16.704Z,20.10
2023-02-23T07:19:18.131Z,19.90
2023-02-23T07:22:19.481Z,20.50
2023-02-23T07:25:20.871Z,20.20
2023-02-23T07:28:22.129Z,21.10
2023-02-23T07:31:25.419Z,20.20
2023-02-23T07:34:26.747Z,20.30
2023-02-23T07:37:27.989Z,20.70
2023-02-23T07:40:29.317Z,20.80
2023-02-23T07:43:30.800Z,20.40
2023-02-23T07:46:32.637Z,20.70
2023-02-23T07:49:34.056Z,20.70
2023-02-23T07:52:36.118Z,20.80
2023-02-23T07:55:37.827Z,20.40
2023-02-23T07:58:39.514Z,21.20
2023-02-23T08:01:41.576Z,20.40
2023-02-23T08:04:42.930Z,20.90
2023-02-23T08:07:44.763Z,20.80
2023-02-23T08:10:49.073Z,20.50
2023-02-23T08:13:51.138Z,20.50
2023-02-23T08:16:53.031Z,20.70
2023-02-23T08:19:54.405Z,20.40
2023-02-23T08:22:55.957Z,21.10
2023-02-23T08:25:58.827Z,20.70
2023-02-23T08:29:00.067Z,21.10
2023-02-23T08:32:03.108Z,20.60
2023-02-23T08:35:04.954Z,21.30
2023-02-23T08:38:06.955Z,20.50
2023-02-23T08:41:08.262Z,21.50
2023-02-23T08:44:09.517Z,20.80
2023-02-23T08:47:11.485Z,21.70
2023-02-23T08:50:13.227Z,20.70
2023-02-23T08:53:14.541Z,21.30
2023-02-23T08:56:15.808Z,21.10
2023-02-23T08:59:17.098Z,21.50
2023-02-23T09:02:19.085Z,21.00
2023-02-23T09:05:20.525Z,21.30
2023-02-23T09:08:22.380Z,20.70
2023-02-23T09:11:23.871Z,21.00
2023-02-23T09:14:31.929Z,21.10
2023-02-23T09:17:33.248Z,21.20
2023-02-23T09:20:34.612Z,21.70
2023-02-23T09:23:36.237Z,20.90
2023-02-23T09:26:39.296Z,21.30
2023-02-23T09:29:41.380Z,21.40
2023-02-23T09:32:43.372Z,21.40
2023-02-23T09:35:44.794Z,21.20
2023-02-23T09:38:46.892Z,21.70
2023-02-23T09:41:53.577Z,21.30
2023-02-23T09:45:00.720Z,21.60
2023-02-23T09:48:08.879Z,21.40
2023-02-23T09:51:14.880Z,21.90
2023-02-23T09:54:17.247Z,21.20
2023-02-23T09:57:20.805Z,21.40
2023-02-23T10:00:24.513Z,21.00
2023-02-23T10:03:27.361Z,21.90
2023-02-23T10:06:28.886Z,21.00
2023-02-23T10:09:39.176Z,21.10
2023-02-23T10:12:44.847Z,21.20
2023-02-23T10:15:50.100Z,21.50
2023-02-23T10:18:55.554Z,21.30
2023-02-23T10:22:01.098Z,21.90
2023-02-23T10:25:04.060Z,21.30
2023-02-23T10:28:06.046Z,21.90
2023-02-23T10:31:18.812Z,21.60
2023-02-23T10:34:22.440Z,21.50
2023-02-23T10:37:25.737Z,21.70
2023-02-23T10:40:29.046Z,21.50
2023-02-23T10:43:30.451Z,21.30
2023-02-23T10:46:36.460Z,21.50
2023-02-23T10:49:40.484Z,21.60
2023-02-23T10:52:43.356Z,21.80
2023-02-23T10:55:45.030Z,21.40
2023-02-23T10:58:46.895Z,21.80
2023-02-23T11:02:01.485Z,21.30
2023-02-23T11:05:03.877Z,21.80
2023-02-23T11:08:20.125Z,21.30
2023-02-23T11:11:24.629Z,21.50
2023-02-23T11:14:27.595Z,21.30
2023-02-23T11:17:31.564Z,22.20
2023-02-23T11:20:35.183Z,21.40
2023-02-23T11:23:37.189Z,22.10
2023-02-23T11:26:40.151Z,21.40
2023-02-23T11:29:42.342Z,20.30
2023-02-23T11:32:44.236Z,21.30
2023-02-23T11:35:46.005Z,21.50
2023-02-23T11:38:47.645Z,21.70
2023-02-23T11:42:03.487Z,22.30
2023-02-23T11:45:05.919Z,20.80
2023-02-23T11:48:18.780Z,22.20
2023-02-23T11:51:24.925Z,21.40
2023-02-23T11:54:27.510Z,21.80
2023-02-23T11:57:30.299Z,21.30
2023-02-23T12:00:31.544Z,21.80
2023-02-23T12:03:33.758Z,21.30
2023-02-23T12:06:35.868Z,21.80
2023-02-23T12:09:44.177Z,21.40
2023-02-23T12:12:50.444Z,21.50
2023-02-23T12:15:54.145Z,21.30
2023-02-23T12:18:58.674Z,21.30
2023-02-23T12:22:03.220Z,21.20
2023-02-23T12:25:08.989Z,21.70
2023-02-23T12:28:18.788Z,21.40
2023-02-23T12:31:22.964Z,21.70
2023-02-23T12:34:27.608Z,21.30
2023-02-23T12:37:36.265Z,22.10
2023-02-23T12:40:41.309Z,21.20
2023-02-23T12:43:50.569Z,21.80
2023-02-23T12:46:54.393Z,21.60
2023-02-23T12:49:59.511Z,21.90
2023-02-23T12:53:11.716Z,21.20
2023-02-23T12:56:22.632Z,22.00
2023-02-23T12:59:38.788Z,21.20
2023-02-23T13:02:44.613Z,21.70
2023-02-23T13:05:48.440Z,21.40
2023-02-23T13:08:55.815Z,21.50
2023-02-23T13:12:06.135Z,21.40
2023-02-23T13:15:11.788Z,21.50
2023-02-23T13:18:16.402Z,21.30
2023-02-23T13:21:22.525Z,22.20
2023-02-23T13:24:25.774Z,21.90
2023-02-23T13:27:29.268Z,22.10
2023-02-23T13:30:31.929Z,20.50
2023-02-23T13:33:43.653Z,22.30
2023-02-23T13:36:46.535Z,21.50
2023-02-23T13:39:55.514Z,22.20
2023-02-23T13:43:02.764Z,21.80
2023-02-23T13:46:13.800Z,22.00
2023-02-23T13:49:27.657Z,21.50
2023-02-23T13:52:30.947Z,22.30
2023-02-23T13:55:48.069Z,21.60
2023-02-23T13:58:52.067Z,21.90
2023-02-23T14:01:54.065Z,22.00
2023-02-23T14:04:56.404Z,21.80
2023-02-23T14:08:01.501Z,21.90
2023-02-23T14:11:03.183Z,21.60
2023-02-23T14:14:04.697Z,21.80
2023-02-23T14:17:11.188Z,21.90
2023-02-23T14:20:29.297Z,21.40
2023-02-23T14:23:34.303Z,21.90
2023-02-23T14:26:38.153Z,21.50
2023-02-23T14:29:40.277Z,21.70
2023-02-23T14:32:42.680Z,21.40
2023-02-23T14:35:44.354Z,22.40
2023-02-23T14:38:48.410Z,21.80
2023-02-23T14:41:52.103Z,21.60
2023-02-23T14:44:54.180Z,21.70
2023-02-23T14:47:59.066Z,21.60
2023-02-23T14:51:16.586Z,21.80
2023-02-23T14:54:23.434Z,21.30
2023-02-23T14:57:25.446Z,21.80
2023-02-23T15:00:28.266Z,21.30
2023-02-23T15:03:29.873Z,22.10
2023-02-23T15:06:31.371Z,21.60
2023-02-23T15:09:34.962Z,21.70
2023-02-23T15:12:37.165Z,21.60
2023-02-23T15:15:44.529Z,22.10
2023-02-23T15:18:45.821Z,21.30
2023-02-23T15:21:49.258Z,21.60
2023-02-23T15:24:51.222Z,21.40
2023-02-23T15:27:52.723Z,21.80
2023-02-23T15:30:54.920Z,21.30
2023-02-23T15:33:56.867Z,22.10
2023-02-23T15:36:59.719Z,21.20
2023-02-23T15:40:04.124Z,22.10
2023-02-23T15:43:05.487Z,21.70
2023-02-23T15:46:06.986Z,22.10
2023-02-23T15:49:10.629Z,21.40
2023-02-23T15:52:15.220Z,22.10
2023-02-23T15:55:20.227Z,21.60
2023-02-23T15:58:23.833Z,22.00
2023-02-23T16:01:26.964Z,21.40
2023-02-23T16:04:31.549Z,21.80
2023-02-23T16:07:37.355Z,21.70
2023-02-23T16:10:41.320Z,21.40
2023-02-23T16:13:43.172Z,21.40
2023-02-23T16:16:45.952Z,22.10
2023-02-23T16:19:47.351Z,21.70
2023-02-23T16:22:54.068Z,21.60
2023-02-23T16:25:58.096Z,21.20
2023-02-23T16:29:01.264Z,21.90
2023-02-23T16:32:09.758Z,21.30
2023-02-23T16:35:15.420Z,22.10
2023-02-23T16:38:22.159Z,21.40
2023-02-23T16:41:24.810Z,21.60
2023-02-23T16:44:34.307Z,21.40
2023-02-23T16:47:40.350Z,21.80
2023-02-23T16:50:42.104Z,21.40
2023-02-23T16:53:43.661Z,21.70
2023-02-23T16:56:46.364Z,21.40
2023-02-23T16:59:49.802Z,21.80
2023-02-23T17:02:51.441Z,21.20
2023-02-23T17:05:53.196Z,22.20
2023-02-23T17:08:58.212Z,21.40
2023-02-23T17:12:00.410Z,21.30
2023-02-23T17:15:03.445Z,21.40
2023-02-23T17:18:04.886Z,21.70
2023-02-23T17:21:07.494Z,21.30
2023-02-23T17:24:08.732Z,21.70
2023-02-23T17:27:10.987Z,21.20
2023-02-23T17:30:12.736Z,22.00
2023-02-23T17:33:14.435Z,21.10
2023-02-23T17:36:16.710Z,22.00
2023-02-23T17:39:18.166Z,21.10
2023-02-23T17:42:20.027Z,21.80
2023-02-23T17:45:22.194Z,21.10
2023-02-23T17:48:24.990Z,21.40
2023-02-23T17:51:26.256Z,21.10
2023-02-23T17:54:27.511Z,22.00
2023-02-23T17:57:30.111Z,20.90
2023-02-23T18:00:36.919Z,21.40
2023-02-23T18:03:38.708Z,21.50
2023-02-23T18:06:40.039Z,21.70
2023-02-23T18:09:41.399Z,21.00
2023-02-23T18:12:43.651Z,21.10
2023-02-23T18:15:47.965Z,21.50
2023-02-23T18:18:49.353Z,21.60
2023-02-23T18:21:55.163Z,21.40
2023-02-23T18:24:57.322Z,21.30
2023-02-23T18:28:00.037Z,21.10
2023-02-23T18:31:01.610Z,21.30
2023-02-23T18:34:02.971Z,20.90
2023-02-23T18:37:07.812Z,21.60
2023-02-23T18:40:20.468Z,20.80
2023-02-23T18:43:22.396Z,21.80
2023-02-23T18:46:23.664Z,20.90
2023-02-23T18:49:25.466Z,21.30
2023-02-23T18:52:26.685Z,21.20
2023-02-23T18:55:27.968Z,21.90
2023-02-23T18:58:29.778Z,20.80
2023-02-23T19:01:32.547Z,21.60
2023-02-23T19:04:35.744Z,20.80
2023-02-23T19:07:37.036Z,21.30
2023-02-23T19:10:38.628Z,21.00
2023-02-23T19:13:40.458Z,21.80
2023-02-23T19:16:42.786Z,20.90
2023-02-23T19:19:44.213Z,20.80
2023-02-23T19:22:46.072Z,20.70
2023-02-23T19:25:47.719Z,21.30
2023-02-23T19:28:49.577Z,20.70
2023-02-23T19:31:51.114Z,21.30
2023-02-23T19:34:52.537Z,20.70
2023-02-23T19:37:53.802Z,21.60
2023-02-23T19:40:56.457Z,20.80
2023-02-23T19:43:58.357Z,20.70
2023-02-23T19:46:59.739Z,20.70
2023-02-23T19:50:01.086Z,21.00
2023-02-23T19:53:02.342Z,20.60
2023-02-23T19:56:05.116Z,20.80
2023-02-23T19:59:06.986Z,20.60
2023-02-23T20:02:09.123Z,21.00
2023-02-23T20:05:10.992Z,20.70
2023-02-23T20:08:12.393Z,20.50
2023-02-23T20:11:14.928Z,20.80
2023-02-23T20:14:17.016Z,21.10
2023-02-23T20:17:18.238Z,20.80
2023-02-23T20:20:24.735Z,21.30
2023-02-23T20:23:26.078Z,20.50
2023-02-23T20:26:28.668Z,20.60
2023-02-23T20:29:30.552Z,20.80
2023-02-23T20:32:31.876Z,20.50
2023-02-23T20:35:33.370Z,21.00
2023-02-23T20:38:34.617Z,21.40
2023-02-23T20:41:35.806Z,20.60
2023-02-23T20:44:37.655Z,20.50
2023-02-23T20:47:38.918Z,20.60
2023-02-23T20:50:41.667Z,21.20
2023-02-23T20:53:45.710Z,20.50
2023-02-23T20:56:58.165Z,20.80
2023-02-23T21:00:00.744Z,20.70
2023-02-23T21:03:02.360Z,21.30
2023-02-23T21:06:03.812Z,20.90
2023-02-23T21:09:11.417Z,20.30
2023-02-23T21:12:13.369Z,21.00
2023-02-23T21:15:16.341Z,20.40
2023-02-23T21:18:17.589Z,20.80
2023-02-23T21:21:19.478Z,21.50
2023-02-23T21:24:21.099Z,20.50
2023-02-23T21:27:23.085Z,21.30
2023-02-23T21:30:27.663Z,20.60
2023-02-23T21:33:28.946Z,20.40
2023-02-23T21:36:30.408Z,20.60
2023-02-23T21:39:31.715Z,21.30
2023-02-23T21:42:32.989Z,20.40
2023-02-23T21:45:34.887Z,20.50
2023-02-23T21:48:36.192Z,20.60
2023-02-23T21:51:37.583Z,20.40
2023-02-23T21:54:39.101Z,20.70
2023-02-23T21:57:40.474Z,21.00
2023-02-23T22:00:43.777Z,20.50
2023-02-23T22:03:45.434Z,21.30
2023-02-23T22:06:46.850Z,20.10
2023-02-23T22:09:48.110Z,20.90
2023-02-23T22:12:54.942Z,20.60
2023-02-23T22:15:58.383Z,20.90
2023-02-23T22:19:03.232Z,20.50
2023-02-23T22:22:04.622Z,20.80
2023-02-23T22:25:06.784Z,20.50
2023-02-23T22:28:09.831Z,20.40
2023-02-23T22:31:12.926Z,20.80
2023-02-23T22:34:14.215Z,20.50
2023-02-23T22:37:15.661Z,20.40
2023-02-23T22:40:17.344Z,21.30
2023-02-23T22:43:21.110Z,20.60
2023-02-23T22:46:23.282Z,20.40
2023-02-23T22:49:26.616Z,20.80
2023-02-23T22:52:29.163Z,20.90
2023-02-23T22:55:30.392Z,20.40
2023-02-23T22:58:32.216Z,20.40
2023-02-23T23:01:34.697Z,20.50
2023-02-23T23:04:35.956Z,20.30
2023-02-23T23:07:37.492Z,20.50
2023-02-23T23:10:38.701Z,20.60
2023-02-23T23:13:43.555Z,20.60
2023-02-23T23:16:46.848Z,20.30
2023-02-23T23:19:48.371Z,20.40
2023-02-23T23:22:49.655Z,20.30
2023-02-23T23:25:51.213Z,20.40
2023-02-23T23:28:54.215Z,20.30
2023-02-23T23:31:56.559Z,20.40
2023-02-23T23:34:59.083Z,20.50
2023-02-23T23:38:02.241Z,20.40
2023-02-23T23:41:09.767Z,21.30
2023-02-23T23:44:12.317Z,20.40
2023-02-23T23:47:14.334Z,20.30
2023-02-23T23:50:16.702Z,20.50
2023-02-23T23:53:18.966Z,20.20
2023-02-23T23:56:20.615Z,20.40
2023-02-23T23:59:22.695Z,20.40
